sensor_id;sensor_type;location;lat;lon;timestamp;temperature;humidity
6439;DHT22;3252;52.540;13.290;2022-08-06T00:00:31;17.50;99.90
6439;DHT22;3252;52.540;13.290;2022-08-06T00:02:33;17.40;99.90
6439;DHT22;3252;52.540;13.290;2022-08-06T00:04:35;17.40;99.90
6439;DHT22;3252;52.540;13.290;2022-08-06T00:06:37;17.40;99.90
6439;DHT22;3252;52.540;13.290;2022-08-06T00:08:41;17.40;99.90
6439;DHT22;3252;52.540;13.290;2022-08-06T00:10:43;17.40;99.90
6439;DHT22;3252;52.540;13.290;2022-08-06T00:12:46;17.40;99.90
6439;DHT22;3252;52.540;13.290;2022-08-06T00:14:48;17.30;99.90
6439;DHT22;3252;52.540;13.290;2022-08-06T00:16:50;17.20;99.90
6439;DHT22;3252;52.540;13.290;2022-08-06T00:18:52;17.20;99.90
6439;DHT22;3252;52.540;13.290;2022-08-06T00:20:54;17.20;99.90
6439;DHT22;3252;52.540;13.290;2022-08-06T00:22:56;17.10;99.90
6439;DHT22;3252;52.540;13.290;2022-08-06T00:25:00;17.00;99.90
6439;DHT22;3252;52.540;13.290;2022-08-06T00:27:03;17.10;99.90
6439;DHT22;3252;52.540;13.290;2022-08-06T00:29:05;17.10;99.90
6439;DHT22;3252;52.540;13.290;2022-08-06T00:31:09;17.00;99.90
6439;DHT22;3252;52.540;13.290;2022-08-06T00:33:11;17.10;99.90
6439;DHT22;3252;52.540;13.290;2022-08-06T00:35:13;17.00;99.90
6439;DHT22;3252;52.540;13.290;2022-08-06T00:37:15;16.90;99.90
6439;DHT22;3252;52.540;13.290;2022-08-06T00:39:17;16.90;99.90
6439;DHT22;3252;52.540;13.290;2022-08-06T00:41:22;16.90;99.90
6439;DHT22;3252;52.540;13.290;2022-08-06T00:43:24;16.90;99.90
6439;DHT22;3252;52.540;13.290;2022-08-06T00:45:26;16.90;99.90
6439;DHT22;3252;52.540;13.290;2022-08-06T00:47:28;16.80;99.90
6439;DHT22;3252;52.540;13.290;2022-08-06T00:49:30;16.80;99.90
6439;DHT22;3252;52.540;13.290;2022-08-06T00:51:32;16.80;99.90
6439;DHT22;3252;52.540;13.290;2022-08-06T00:53:35;16.70;99.90
6439;DHT22;3252;52.540;13.290;2022-08-06T00:55:38;16.70;99.90
6439;DHT22;3252;52.540;13.290;2022-08-06T00:57:41;16.70;99.90
6439;DHT22;3252;52.540;13.290;2022-08-06T00:59:43;16.70;99.90
6439;DHT22;3252;52.540;13.290;2022-08-06T01:01:45;16.70;99.90
6439;DHT22;3252;52.540;13.290;2022-08-06T01:03:47;16.60;99.90
6439;DHT22;3252;52.540;13.290;2022-08-06T01:05:49;16.60;99.90
6439;DHT22;3252;52.540;13.290;2022-08-06T01:07:51;16.60;99.90
6439;DHT22;3252;52.540;13.290;2022-08-06T01:09:54;16.60;99.90
6439;DHT22;3252;52.540;13.290;2022-08-06T01:11:56;16.50;99.90
6439;DHT22;3252;52.540;13.290;2022-08-06T01:14:00;16.50;99.90
6439;DHT22;3252;52.540;13.290;2022-08-06T01:16:10;16.40;99.90
6439;DHT22;3252;52.540;13.290;2022-08-06T01:18:19;16.40;99.90
6439;DHT22;3252;52.540;13.290;2022-08-06T01:20:46;16.40;99.90
6439;DHT22;3252;52.540;13.290;2022-08-06T01:23:07;16.40;99.90
6439;DHT22;3252;52.540;13.290;2022-08-06T01:27:46;16.30;99.90
6439;DHT22;3252;52.540;13.290;2022-08-06T01:29:52;16.30;99.90
6439;DHT22;3252;52.540;13.290;2022-08-06T01:32:02;16.30;99.90
6439;DHT22;3252;52.540;13.290;2022-08-06T01:34:07;16.30;99.90
6439;DHT22;3252;52.540;13.290;2022-08-06T01:36:17;16.30;99.90
6439;DHT22;3252;52.540;13.290;2022-08-06T01:38:24;16.30;99.90
6439;DHT22;3252;52.540;13.290;2022-08-06T01:40:30;16.20;99.90
6439;DHT22;3252;52.540;13.290;2022-08-06T01:42:33;16.20;99.90
6439;DHT22;3252;52.540;13.290;2022-08-06T01:44:41;16.20;99.90
6439;DHT22;3252;52.540;13.290;2022-08-06T01:46:49;16.10;99.90
6439;DHT22;3252;52.540;13.290;2022-08-06T01:48:51;16.10;99.90
6439;DHT22;3252;52.540;13.290;2022-08-06T01:50:55;16.20;99.90
6439;DHT22;3252;52.540;13.290;2022-08-06T01:53:01;16.10;99.90
6439;DHT22;3252;52.540;13.290;2022-08-06T01:55:08;16.10;99.90
6439;DHT22;3252;52.540;13.290;2022-08-06T01:57:11;16.10;99.90
6439;DHT22;3252;52.540;13.290;2022-08-06T01:59:17;16.00;99.90
6439;DHT22;3252;52.540;13.290;2022-08-06T02:01:24;16.00;99.90
6439;DHT22;3252;52.540;13.290;2022-08-06T02:03:30;15.90;99.90
6439;DHT22;3252;52.540;13.290;2022-08-06T02:05:33;15.90;99.90
6439;DHT22;3252;52.540;13.290;2022-08-06T02:07:40;15.90;99.90
6439;DHT22;3252;52.540;13.290;2022-08-06T02:09:44;15.90;99.90
6439;DHT22;3252;52.540;13.290;2022-08-06T02:11:54;15.80;99.90
6439;DHT22;3252;52.540;13.290;2022-08-06T02:13:59;15.80;99.90
6439;DHT22;3252;52.540;13.290;2022-08-06T02:16:03;15.80;99.90
6439;DHT22;3252;52.540;13.290;2022-08-06T02:18:09;15.80;99.90
6439;DHT22;3252;52.540;13.290;2022-08-06T02:20:14;15.70;99.90
6439;DHT22;3252;52.540;13.290;2022-08-06T02:22:17;15.70;99.90
6439;DHT22;3252;52.540;13.290;2022-08-06T02:24:22;15.60;99.90
6439;DHT22;3252;52.540;13.290;2022-08-06T02:26:27;15.60;99.90
6439;DHT22;3252;52.540;13.290;2022-08-06T02:28:29;15.60;99.90
6439;DHT22;3252;52.540;13.290;2022-08-06T02:30:35;15.60;99.90
6439;DHT22;3252;52.540;13.290;2022-08-06T02:32:38;15.60;99.90
6439;DHT22;3252;52.540;13.290;2022-08-06T02:34:42;15.50;99.90
6439;DHT22;3252;52.540;13.290;2022-08-06T02:36:47;15.50;99.90
6439;DHT22;3252;52.540;13.290;2022-08-06T02:38:55;15.50;99.90
6439;DHT22;3252;52.540;13.290;2022-08-06T02:41:00;15.50;99.90
6439;DHT22;3252;52.540;13.290;2022-08-06T02:43:06;15.40;99.90
6439;DHT22;3252;52.540;13.290;2022-08-06T02:45:15;15.50;99.90
6439;DHT22;3252;52.540;13.290;2022-08-06T02:47:24;15.40;99.90
6439;DHT22;3252;52.540;13.290;2022-08-06T02:49:33;15.40;99.90
6439;DHT22;3252;52.540;13.290;2022-08-06T02:51:42;15.40;99.90
6439;DHT22;3252;52.540;13.290;2022-08-06T02:53:54;15.40;99.90
6439;DHT22;3252;52.540;13.290;2022-08-06T02:56:02;15.30;99.90
6439;DHT22;3252;52.540;13.290;2022-08-06T02:58:11;15.30;99.90
6439;DHT22;3252;52.540;13.290;2022-08-06T03:00:16;15.30;99.90
6439;DHT22;3252;52.540;13.290;2022-08-06T03:02:20;15.30;99.90
6439;DHT22;3252;52.540;13.290;2022-08-06T03:04:25;15.30;99.90
6439;DHT22;3252;52.540;13.290;2022-08-06T03:06:32;15.40;99.90
6439;DHT22;3252;52.540;13.290;2022-08-06T03:08:36;15.40;99.90
6439;DHT22;3252;52.540;13.290;2022-08-06T03:10:39;15.30;99.90
6439;DHT22;3252;52.540;13.290;2022-08-06T03:12:42;15.30;99.90
6439;DHT22;3252;52.540;13.290;2022-08-06T03:14:44;15.30;99.90
6439;DHT22;3252;52.540;13.290;2022-08-06T03:16:49;15.20;99.90
6439;DHT22;3252;52.540;13.290;2022-08-06T03:18:55;15.10;99.90
6439;DHT22;3252;52.540;13.290;2022-08-06T03:20:59;15.10;99.90
6439;DHT22;3252;52.540;13.290;2022-08-06T03:23:05;15.10;99.90
6439;DHT22;3252;52.540;13.290;2022-08-06T03:25:12;15.00;99.90
6439;DHT22;3252;52.540;13.290;2022-08-06T03:27:15;15.00;99.90
6439;DHT22;3252;52.540;13.290;2022-08-06T03:29:19;15.00;99.90
6439;DHT22;3252;52.540;13.290;2022-08-06T03:31:22;15.00;99.90
6439;DHT22;3252;52.540;13.290;2022-08-06T03:33:26;15.00;99.90
6439;DHT22;3252;52.540;13.290;2022-08-06T03:35:28;15.00;99.90
6439;DHT22;3252;52.540;13.290;2022-08-06T03:37:30;14.90;99.90
6439;DHT22;3252;52.540;13.290;2022-08-06T03:39:34;14.90;99.90
6439;DHT22;3252;52.540;13.290;2022-08-06T03:41:39;14.90;99.90
6439;DHT22;3252;52.540;13.290;2022-08-06T03:43:42;14.90;99.90
6439;DHT22;3252;52.540;13.290;2022-08-06T03:45:46;14.90;99.90
6439;DHT22;3252;52.540;13.290;2022-08-06T03:47:54;14.90;99.90
6439;DHT22;3252;52.540;13.290;2022-08-06T03:50:02;14.80;99.90
6439;DHT22;3252;52.540;13.290;2022-08-06T03:52:05;14.80;99.90
6439;DHT22;3252;52.540;13.290;2022-08-06T03:54:08;14.90;99.90
6439;DHT22;3252;52.540;13.290;2022-08-06T03:56:15;14.90;99.90
6439;DHT22;3252;52.540;13.290;2022-08-06T03:58:19;14.90;99.90
6439;DHT22;3252;52.540;13.290;2022-08-06T04:00:24;14.90;99.90
6439;DHT22;3252;52.540;13.290;2022-08-06T04:02:29;14.90;99.90
6439;DHT22;3252;52.540;13.290;2022-08-06T04:04:32;14.90;99.90
6439;DHT22;3252;52.540;13.290;2022-08-06T04:06:36;14.90;99.90
6439;DHT22;3252;52.540;13.290;2022-08-06T04:08:39;14.90;99.90
6439;DHT22;3252;52.540;13.290;2022-08-06T04:10:44;14.90;99.90
6439;DHT22;3252;52.540;13.290;2022-08-06T04:12:46;14.90;99.90
6439;DHT22;3252;52.540;13.290;2022-08-06T04:14:51;14.90;99.90
6439;DHT22;3252;52.540;13.290;2022-08-06T04:16:53;14.90;99.90
6439;DHT22;3252;52.540;13.290;2022-08-06T04:18:57;14.90;99.90
6439;DHT22;3252;52.540;13.290;2022-08-06T04:21:01;14.90;99.90
6439;DHT22;3252;52.540;13.290;2022-08-06T04:23:04;14.90;99.90
6439;DHT22;3252;52.540;13.290;2022-08-06T04:25:06;14.90;99.90
6439;DHT22;3252;52.540;13.290;2022-08-06T04:27:13;15.00;99.90
6439;DHT22;3252;52.540;13.290;2022-08-06T04:29:17;15.00;99.90
6439;DHT22;3252;52.540;13.290;2022-08-06T04:31:22;15.00;99.90
6439;DHT22;3252;52.540;13.290;2022-08-06T04:33:26;15.00;99.90
6439;DHT22;3252;52.540;13.290;2022-08-06T04:35:29;15.10;99.90
6439;DHT22;3252;52.540;13.290;2022-08-06T04:37:32;15.00;99.90
6439;DHT22;3252;52.540;13.290;2022-08-06T04:39:35;15.00;99.90
6439;DHT22;3252;52.540;13.290;2022-08-06T04:41:37;15.00;99.90
6439;DHT22;3252;52.540;13.290;2022-08-06T04:43:40;15.00;99.90
6439;DHT22;3252;52.540;13.290;2022-08-06T04:45:43;15.00;99.90
6439;DHT22;3252;52.540;13.290;2022-08-06T04:47:47;15.00;99.90
6439;DHT22;3252;52.540;13.290;2022-08-06T04:49:50;14.90;99.90
6439;DHT22;3252;52.540;13.290;2022-08-06T04:51:52;15.00;99.90
6439;DHT22;3252;52.540;13.290;2022-08-06T04:53:54;15.00;99.90
6439;DHT22;3252;52.540;13.290;2022-08-06T04:55:56;14.90;99.90
6439;DHT22;3252;52.540;13.290;2022-08-06T04:57:58;14.80;99.90
6439;DHT22;3252;52.540;13.290;2022-08-06T05:00:00;14.90;99.90
6439;DHT22;3252;52.540;13.290;2022-08-06T05:02:02;14.80;99.90
6439;DHT22;3252;52.540;13.290;2022-08-06T05:04:05;14.80;99.90
6439;DHT22;3252;52.540;13.290;2022-08-06T05:06:10;14.80;99.90
6439;DHT22;3252;52.540;13.290;2022-08-06T05:08:16;14.90;99.90
6439;DHT22;3252;52.540;13.290;2022-08-06T05:10:20;14.80;99.90
6439;DHT22;3252;52.540;13.290;2022-08-06T05:12:25;14.80;99.90
6439;DHT22;3252;52.540;13.290;2022-08-06T05:14:31;14.80;99.90
6439;DHT22;3252;52.540;13.290;2022-08-06T05:16:39;14.80;99.90
6439;DHT22;3252;52.540;13.290;2022-08-06T05:18:43;14.80;99.90
6439;DHT22;3252;52.540;13.290;2022-08-06T05:20:49;14.80;99.90
6439;DHT22;3252;52.540;13.290;2022-08-06T05:22:57;14.80;99.90
6439;DHT22;3252;52.540;13.290;2022-08-06T05:25:00;14.80;99.90
6439;DHT22;3252;52.540;13.290;2022-08-06T05:27:03;14.80;99.90
6439;DHT22;3252;52.540;13.290;2022-08-06T05:29:05;14.80;99.90
6439;DHT22;3252;52.540;13.290;2022-08-06T05:31:07;14.80;99.90
6439;DHT22;3252;52.540;13.290;2022-08-06T05:33:09;14.80;99.90
6439;DHT22;3252;52.540;13.290;2022-08-06T05:35:11;14.90;99.90
6439;DHT22;3252;52.540;13.290;2022-08-06T05:37:15;14.90;99.90
6439;DHT22;3252;52.540;13.290;2022-08-06T05:39:17;14.90;99.90
6439;DHT22;3252;52.540;13.290;2022-08-06T05:41:20;14.90;99.90
6439;DHT22;3252;52.540;13.290;2022-08-06T05:43:23;15.00;99.90
6439;DHT22;3252;52.540;13.290;2022-08-06T05:45:26;15.00;99.90
6439;DHT22;3252;52.540;13.290;2022-08-06T05:47:33;15.00;99.90
6439;DHT22;3252;52.540;13.290;2022-08-06T05:49:41;15.10;99.90
6439;DHT22;3252;52.540;13.290;2022-08-06T05:51:49;15.10;99.90
6439;DHT22;3252;52.540;13.290;2022-08-06T05:53:57;15.10;99.90
6439;DHT22;3252;52.540;13.290;2022-08-06T05:56:04;15.20;99.90
6439;DHT22;3252;52.540;13.290;2022-08-06T05:58:10;15.20;99.90
6439;DHT22;3252;52.540;13.290;2022-08-06T06:00:17;15.30;99.90
6439;DHT22;3252;52.540;13.290;2022-08-06T06:02:21;15.30;99.90
6439;DHT22;3252;52.540;13.290;2022-08-06T06:04:24;15.40;99.90
6439;DHT22;3252;52.540;13.290;2022-08-06T06:06:27;15.40;99.90
6439;DHT22;3252;52.540;13.290;2022-08-06T06:08:31;15.40;99.90
6439;DHT22;3252;52.540;13.290;2022-08-06T06:10:34;15.50;99.90
6439;DHT22;3252;52.540;13.290;2022-08-06T06:12:38;15.60;99.90
6439;DHT22;3252;52.540;13.290;2022-08-06T06:14:42;15.60;99.90
6439;DHT22;3252;52.540;13.290;2022-08-06T06:16:54;15.70;99.90
6439;DHT22;3252;52.540;13.290;2022-08-06T06:19:08;15.70;99.90
6439;DHT22;3252;52.540;13.290;2022-08-06T06:21:20;15.80;99.90
6439;DHT22;3252;52.540;13.290;2022-08-06T06:23:32;15.80;99.90
6439;DHT22;3252;52.540;13.290;2022-08-06T06:25:42;15.90;99.90
6439;DHT22;3252;52.540;13.290;2022-08-06T06:27:52;15.90;99.90
6439;DHT22;3252;52.540;13.290;2022-08-06T06:29:59;16.00;99.90
6439;DHT22;3252;52.540;13.290;2022-08-06T06:32:08;16.00;99.90
6439;DHT22;3252;52.540;13.290;2022-08-06T06:34:14;16.10;99.90
6439;DHT22;3252;52.540;13.290;2022-08-06T06:36:25;16.10;99.90
6439;DHT22;3252;52.540;13.290;2022-08-06T06:38:36;16.20;99.90
6439;DHT22;3252;52.540;13.290;2022-08-06T06:40:49;16.30;99.90
6439;DHT22;3252;52.540;13.290;2022-08-06T06:42:56;16.40;99.90
6439;DHT22;3252;52.540;13.290;2022-08-06T06:45:07;16.40;99.90
6439;DHT22;3252;52.540;13.290;2022-08-06T06:47:16;16.50;99.90
6439;DHT22;3252;52.540;13.290;2022-08-06T06:49:27;16.50;99.90
6439;DHT22;3252;52.540;13.290;2022-08-06T06:51:34;16.60;99.90
6439;DHT22;3252;52.540;13.290;2022-08-06T06:53:41;16.60;99.90
6439;DHT22;3252;52.540;13.290;2022-08-06T06:55:49;16.60;99.90
6439;DHT22;3252;52.540;13.290;2022-08-06T06:57:55;16.70;99.90
6439;DHT22;3252;52.540;13.290;2022-08-06T07:00:02;16.80;99.90
6439;DHT22;3252;52.540;13.290;2022-08-06T07:02:05;16.90;99.90
6439;DHT22;3252;52.540;13.290;2022-08-06T07:04:10;16.90;99.90
6439;DHT22;3252;52.540;13.290;2022-08-06T07:06:14;17.00;99.90
6439;DHT22;3252;52.540;13.290;2022-08-06T07:08:20;17.10;99.90
6439;DHT22;3252;52.540;13.290;2022-08-06T07:10:24;17.20;99.90
6439;DHT22;3252;52.540;13.290;2022-08-06T07:12:31;17.30;99.90
6439;DHT22;3252;52.540;13.290;2022-08-06T07:14:36;17.30;99.90
6439;DHT22;3252;52.540;13.290;2022-08-06T07:16:39;17.30;99.90
6439;DHT22;3252;52.540;13.290;2022-08-06T07:18:43;17.40;99.90
6439;DHT22;3252;52.540;13.290;2022-08-06T07:20:46;17.50;99.90
6439;DHT22;3252;52.540;13.290;2022-08-06T07:22:49;17.60;99.90
6439;DHT22;3252;52.540;13.290;2022-08-06T07:24:53;17.60;99.90
6439;DHT22;3252;52.540;13.290;2022-08-06T07:26:57;17.70;99.90
6439;DHT22;3252;52.540;13.290;2022-08-06T07:29:01;17.70;99.30
6439;DHT22;3252;52.540;13.290;2022-08-06T07:31:04;17.70;99.20
6439;DHT22;3252;52.540;13.290;2022-08-06T07:33:07;17.80;99.40
6439;DHT22;3252;52.540;13.290;2022-08-06T07:35:11;17.80;99.50
6439;DHT22;3252;52.540;13.290;2022-08-06T07:37:13;17.80;99.20
6439;DHT22;3252;52.540;13.290;2022-08-06T07:39:23;17.90;99.60
6439;DHT22;3252;52.540;13.290;2022-08-06T07:41:26;18.00;99.10
6439;DHT22;3252;52.540;13.290;2022-08-06T07:43:32;17.90;99.20
6439;DHT22;3252;52.540;13.290;2022-08-06T07:45:37;18.00;99.20
6439;DHT22;3252;52.540;13.290;2022-08-06T07:47:41;18.00;99.50
6439;DHT22;3252;52.540;13.290;2022-08-06T07:49:44;18.00;99.10
6439;DHT22;3252;52.540;13.290;2022-08-06T07:51:48;18.00;99.30
6439;DHT22;3252;52.540;13.290;2022-08-06T07:53:52;18.10;99.50
6439;DHT22;3252;52.540;13.290;2022-08-06T07:55:55;18.10;98.80
6439;DHT22;3252;52.540;13.290;2022-08-06T07:57:57;18.20;99.30
6439;DHT22;3252;52.540;13.290;2022-08-06T08:00:01;18.20;98.80
6439;DHT22;3252;52.540;13.290;2022-08-06T08:02:14;18.20;99.60
6439;DHT22;3252;52.540;13.290;2022-08-06T08:04:17;18.40;98.80
6439;DHT22;3252;52.540;13.290;2022-08-06T08:06:37;18.40;98.60
6439;DHT22;3252;52.540;13.290;2022-08-06T08:08:39;18.40;98.20
6439;DHT22;3252;52.540;13.290;2022-08-06T08:10:42;18.50;97.50
6439;DHT22;3252;52.540;13.290;2022-08-06T08:12:44;18.50;97.80
6439;DHT22;3252;52.540;13.290;2022-08-06T08:14:47;18.50;95.70
6439;DHT22;3252;52.540;13.290;2022-08-06T08:16:51;18.50;95.90
6439;DHT22;3252;52.540;13.290;2022-08-06T08:18:54;18.40;95.20
6439;DHT22;3252;52.540;13.290;2022-08-06T08:20:58;18.40;94.90
6439;DHT22;3252;52.540;13.290;2022-08-06T08:23:02;18.50;96.00
6439;DHT22;3252;52.540;13.290;2022-08-06T08:25:06;18.50;95.10
6439;DHT22;3252;52.540;13.290;2022-08-06T08:27:09;18.60;94.70
6439;DHT22;3252;52.540;13.290;2022-08-06T08:29:11;18.60;94.80
6439;DHT22;3252;52.540;13.290;2022-08-06T08:31:13;18.70;94.60
6439;DHT22;3252;52.540;13.290;2022-08-06T08:33:15;18.80;93.30
6439;DHT22;3252;52.540;13.290;2022-08-06T08:35:19;18.90;92.80
6439;DHT22;3252;52.540;13.290;2022-08-06T08:37:21;18.90;93.20
6439;DHT22;3252;52.540;13.290;2022-08-06T08:39:23;18.90;92.20
6439;DHT22;3252;52.540;13.290;2022-08-06T08:41:31;18.90;92.30
6439;DHT22;3252;52.540;13.290;2022-08-06T08:43:42;18.90;91.50
6439;DHT22;3252;52.540;13.290;2022-08-06T08:45:46;18.90;90.80
6439;DHT22;3252;52.540;13.290;2022-08-06T08:47:51;19.00;91.30
6439;DHT22;3252;52.540;13.290;2022-08-06T08:49:55;19.10;91.20
6439;DHT22;3252;52.540;13.290;2022-08-06T08:52:00;19.20;89.50
6439;DHT22;3252;52.540;13.290;2022-08-06T08:54:06;19.30;89.00
6439;DHT22;3252;52.540;13.290;2022-08-06T08:56:11;19.30;88.50
6439;DHT22;3252;52.540;13.290;2022-08-06T08:58:14;19.30;89.60
6439;DHT22;3252;52.540;13.290;2022-08-06T09:00:17;19.40;90.00
6439;DHT22;3252;52.540;13.290;2022-08-06T09:02:20;19.60;85.10
6439;DHT22;3252;52.540;13.290;2022-08-06T09:04:24;20.00;77.50
6439;DHT22;3252;52.540;13.290;2022-08-06T09:06:27;20.40;76.90
6439;DHT22;3252;52.540;13.290;2022-08-06T09:08:31;20.40;72.40
6439;DHT22;3252;52.540;13.290;2022-08-06T09:10:34;20.50;70.70
6439;DHT22;3252;52.540;13.290;2022-08-06T09:12:35;20.90;70.30
6439;DHT22;3252;52.540;13.290;2022-08-06T09:14:38;21.00;67.70
6439;DHT22;3252;52.540;13.290;2022-08-06T09:16:44;20.70;68.10
6439;DHT22;3252;52.540;13.290;2022-08-06T09:18:46;20.70;70.30
6439;DHT22;3252;52.540;13.290;2022-08-06T09:20:48;20.60;71.10
6439;DHT22;3252;52.540;13.290;2022-08-06T09:22:50;20.50;71.70
6439;DHT22;3252;52.540;13.290;2022-08-06T09:24:54;20.40;73.20
6439;DHT22;3252;52.540;13.290;2022-08-06T09:27:04;20.60;73.90
6439;DHT22;3252;52.540;13.290;2022-08-06T09:29:19;20.90;72.90
6439;DHT22;3252;52.540;13.290;2022-08-06T09:31:21;21.10;68.50
6439;DHT22;3252;52.540;13.290;2022-08-06T09:33:23;21.30;70.60
6439;DHT22;3252;52.540;13.290;2022-08-06T09:35:27;21.30;67.00
6439;DHT22;3252;52.540;13.290;2022-08-06T09:37:30;21.30;68.00
6439;DHT22;3252;52.540;13.290;2022-08-06T09:39:33;21.30;61.80
6439;DHT22;3252;52.540;13.290;2022-08-06T09:41:46;21.40;61.00
6439;DHT22;3252;52.540;13.290;2022-08-06T09:43:50;21.50;60.10
6439;DHT22;3252;52.540;13.290;2022-08-06T09:45:52;21.80;59.80
6439;DHT22;3252;52.540;13.290;2022-08-06T09:48:02;21.90;59.80
6439;DHT22;3252;52.540;13.290;2022-08-06T09:50:05;21.80;60.20
6439;DHT22;3252;52.540;13.290;2022-08-06T09:52:15;21.60;60.80
6439;DHT22;3252;52.540;13.290;2022-08-06T09:54:17;21.50;60.90
6439;DHT22;3252;52.540;13.290;2022-08-06T09:56:21;21.40;61.50
6439;DHT22;3252;52.540;13.290;2022-08-06T09:58:29;21.30;62.40
6439;DHT22;3252;52.540;13.290;2022-08-06T10:00:33;21.10;62.50
6439;DHT22;3252;52.540;13.290;2022-08-06T10:02:35;20.90;62.80
6439;DHT22;3252;52.540;13.290;2022-08-06T10:04:39;20.90;62.10
6439;DHT22;3252;52.540;13.290;2022-08-06T10:06:53;20.70;62.60
6439;DHT22;3252;52.540;13.290;2022-08-06T10:09:07;20.70;62.90
6439;DHT22;3252;52.540;13.290;2022-08-06T10:11:09;20.90;63.80
6439;DHT22;3252;52.540;13.290;2022-08-06T10:13:15;20.80;63.80
6439;DHT22;3252;52.540;13.290;2022-08-06T10:15:28;20.90;62.40
6439;DHT22;3252;52.540;13.290;2022-08-06T10:17:31;20.90;60.00
6439;DHT22;3252;52.540;13.290;2022-08-06T10:19:33;20.90;60.30
6439;DHT22;3252;52.540;13.290;2022-08-06T10:21:35;21.00;63.00
6439;DHT22;3252;52.540;13.290;2022-08-06T10:23:40;21.10;63.60
6439;DHT22;3252;52.540;13.290;2022-08-06T10:25:42;21.00;60.60
6439;DHT22;3252;52.540;13.290;2022-08-06T10:27:44;21.10;60.30
6439;DHT22;3252;52.540;13.290;2022-08-06T10:29:50;21.20;61.10
6439;DHT22;3252;52.540;13.290;2022-08-06T10:31:55;21.40;59.60
6439;DHT22;3252;52.540;13.290;2022-08-06T10:33:59;21.30;58.50
6439;DHT22;3252;52.540;13.290;2022-08-06T10:36:04;21.30;57.90
6439;DHT22;3252;52.540;13.290;2022-08-06T10:38:07;21.20;58.70
6439;DHT22;3252;52.540;13.290;2022-08-06T10:40:12;21.10;57.90
6439;DHT22;3252;52.540;13.290;2022-08-06T10:42:15;21.10;59.70
6439;DHT22;3252;52.540;13.290;2022-08-06T10:44:18;21.10;59.80
6439;DHT22;3252;52.540;13.290;2022-08-06T10:46:20;21.30;60.20
6439;DHT22;3252;52.540;13.290;2022-08-06T10:48:24;21.30;57.90
6439;DHT22;3252;52.540;13.290;2022-08-06T10:50:26;21.40;57.60
6439;DHT22;3252;52.540;13.290;2022-08-06T10:52:28;21.50;58.70
6439;DHT22;3252;52.540;13.290;2022-08-06T10:54:31;21.60;58.30
6439;DHT22;3252;52.540;13.290;2022-08-06T10:56:33;21.60;58.60
6439;DHT22;3252;52.540;13.290;2022-08-06T10:58:37;21.60;57.80
6439;DHT22;3252;52.540;13.290;2022-08-06T11:00:40;21.60;57.80
6439;DHT22;3252;52.540;13.290;2022-08-06T11:02:51;21.50;57.50
6439;DHT22;3252;52.540;13.290;2022-08-06T11:04:58;21.50;59.00
6439;DHT22;3252;52.540;13.290;2022-08-06T11:07:11;21.40;57.80
6439;DHT22;3252;52.540;13.290;2022-08-06T11:09:27;21.30;57.90
6439;DHT22;3252;52.540;13.290;2022-08-06T11:11:42;21.20;57.90
6439;DHT22;3252;52.540;13.290;2022-08-06T11:13:56;21.00;57.40
6439;DHT22;3252;52.540;13.290;2022-08-06T11:16:00;21.00;60.40
6439;DHT22;3252;52.540;13.290;2022-08-06T11:18:04;21.00;59.90
6439;DHT22;3252;52.540;13.290;2022-08-06T11:20:09;21.10;59.70
6439;DHT22;3252;52.540;13.290;2022-08-06T11:22:35;21.20;57.70
6439;DHT22;3252;52.540;13.290;2022-08-06T11:24:49;21.20;56.50
6439;DHT22;3252;52.540;13.290;2022-08-06T11:26:52;21.30;55.50
6439;DHT22;3252;52.540;13.290;2022-08-06T11:28:58;21.50;55.90
6439;DHT22;3252;52.540;13.290;2022-08-06T11:31:03;21.50;54.40
6439;DHT22;3252;52.540;13.290;2022-08-06T11:33:06;21.60;54.90
6439;DHT22;3252;52.540;13.290;2022-08-06T11:35:44;21.70;54.30
6439;DHT22;3252;52.540;13.290;2022-08-06T11:37:49;21.80;54.60
6439;DHT22;3252;52.540;13.290;2022-08-06T11:40:06;21.90;52.80
6439;DHT22;3252;52.540;13.290;2022-08-06T11:42:09;22.00;51.90
6439;DHT22;3252;52.540;13.290;2022-08-06T11:44:11;22.10;53.50
6439;DHT22;3252;52.540;13.290;2022-08-06T11:46:21;22.10;52.40
6439;DHT22;3252;52.540;13.290;2022-08-06T11:48:24;22.20;51.90
6439;DHT22;3252;52.540;13.290;2022-08-06T11:50:26;22.30;50.70
6439;DHT22;3252;52.540;13.290;2022-08-06T11:52:42;22.30;50.60
6439;DHT22;3252;52.540;13.290;2022-08-06T11:55:02;22.40;51.20
6439;DHT22;3252;52.540;13.290;2022-08-06T11:57:18;22.40;50.90
6439;DHT22;3252;52.540;13.290;2022-08-06T11:59:20;22.40;51.40
6439;DHT22;3252;52.540;13.290;2022-08-06T12:01:45;22.50;50.20
6439;DHT22;3252;52.540;13.290;2022-08-06T12:03:48;22.40;49.80
6439;DHT22;3252;52.540;13.290;2022-08-06T12:05:51;22.40;50.70
6439;DHT22;3252;52.540;13.290;2022-08-06T12:08:23;22.50;51.40
6439;DHT22;3252;52.540;13.290;2022-08-06T12:10:25;22.50;50.00
6439;DHT22;3252;52.540;13.290;2022-08-06T12:12:35;22.40;50.60
6439;DHT22;3252;52.540;13.290;2022-08-06T12:14:40;22.50;50.70
6439;DHT22;3252;52.540;13.290;2022-08-06T12:16:42;22.40;51.40
6439;DHT22;3252;52.540;13.290;2022-08-06T12:18:44;22.40;50.00
6439;DHT22;3252;52.540;13.290;2022-08-06T12:20:47;22.20;49.60
6439;DHT22;3252;52.540;13.290;2022-08-06T12:22:50;22.30;49.90
6439;DHT22;3252;52.540;13.290;2022-08-06T12:24:56;22.30;50.50
6439;DHT22;3252;52.540;13.290;2022-08-06T12:27:00;22.30;47.90
6439;DHT22;3252;52.540;13.290;2022-08-06T12:29:05;22.40;47.80
6439;DHT22;3252;52.540;13.290;2022-08-06T12:31:08;22.60;48.50
6439;DHT22;3252;52.540;13.290;2022-08-06T12:33:10;22.60;47.40
6439;DHT22;3252;52.540;13.290;2022-08-06T12:35:13;22.60;47.10
6439;DHT22;3252;52.540;13.290;2022-08-06T12:37:15;22.60;46.70
6439;DHT22;3252;52.540;13.290;2022-08-06T12:39:17;22.70;46.50
6439;DHT22;3252;52.540;13.290;2022-08-06T12:41:20;22.80;46.10
6439;DHT22;3252;52.540;13.290;2022-08-06T12:43:23;22.90;45.50
6439;DHT22;3252;52.540;13.290;2022-08-06T12:45:27;22.90;45.60
6439;DHT22;3252;52.540;13.290;2022-08-06T12:47:29;22.90;45.10
6439;DHT22;3252;52.540;13.290;2022-08-06T12:49:31;22.80;44.90
6439;DHT22;3252;52.540;13.290;2022-08-06T12:51:33;22.90;44.20
6439;DHT22;3252;52.540;13.290;2022-08-06T12:53:38;22.90;45.40
6439;DHT22;3252;52.540;13.290;2022-08-06T12:55:44;22.70;43.40
6439;DHT22;3252;52.540;13.290;2022-08-06T12:57:47;22.70;44.60
6439;DHT22;3252;52.540;13.290;2022-08-06T12:59:50;22.70;45.40
6439;DHT22;3252;52.540;13.290;2022-08-06T13:01:53;22.90;45.70
6439;DHT22;3252;52.540;13.290;2022-08-06T13:03:58;22.90;45.50
6439;DHT22;3252;52.540;13.290;2022-08-06T13:06:05;23.00;47.40
6439;DHT22;3252;52.540;13.290;2022-08-06T13:08:08;23.00;46.30
6439;DHT22;3252;52.540;13.290;2022-08-06T13:10:12;23.00;46.30
6439;DHT22;3252;52.540;13.290;2022-08-06T13:12:15;23.00;47.00
6439;DHT22;3252;52.540;13.290;2022-08-06T13:14:19;23.00;49.50
6439;DHT22;3252;52.540;13.290;2022-08-06T13:16:21;22.80;46.80
6439;DHT22;3252;52.540;13.290;2022-08-06T13:18:23;22.70;47.40
6439;DHT22;3252;52.540;13.290;2022-08-06T13:20:35;22.70;46.70
6439;DHT22;3252;52.540;13.290;2022-08-06T13:22:50;22.60;45.80
6439;DHT22;3252;52.540;13.290;2022-08-06T13:25:11;22.50;46.20